Ana Sayfa
METAR-TAF:

METAR-TAF

Havaalanları :

Millington, Tennessee, Amerika Birleşik Devletleri

Enlem: 35-21-24N, Boylam: 089-52-13W, yükseklik: 98 m

Güncel hava durumu gözlemi

Rapor saat 18:50 UTC de 34 dakika önce yapıldı.
Rüzgar batıdan 8 kt
Sıcaklık 36°C
Nem 53%
Basınç 1014 hPa
Görüş mesafesi: 16.1 km
4800 ft yükseklikte az bulutlu
7000 ft yükseklikte az bulutlu

METAR: KNQA 251850Z 28008KT 10SM FEW048 FEW070 36/25 A2993

Saat: 14:24 (19:24 UTC)


TAF: eksik

4.000'den fazla havaalanı için hava durumu gözlemleri ve tahminleri (METAR ve TAF raporları).

Kullanılabilir istasyonlar harita üzerinde sarı ve kırmızı noktalarla gösterilir.

İstasyonun adını görmek için fareyi noktanın üzerinde gezdirin.

Sonrasında hava gözlem ve tahminlerini görmek için tıklayın.

Haritayı değiştirmek için: yaklaştırmak için siyah artı işaretli yeşil düğmeye ve uzaklaştırmak için de eksi işaretli düğmeye hızla tıklayın; bitişik haritalar için yeşil okları kullanın.


METAR-TAF: